Time;durP1;ratioP1;P1;durP2;ratioP2;P2;SDS_P1;SDS_P2;PMS_P1;PMS_P2;Temp;Humidity;BMP_temperature;BMP_pressure;BME280_temperature;BME280_humidity;BME280_pressure;Samples;Min_cycle;Max_cycle;Signal;HPM_P1;HPM_P2
2022/05/24 00:02:12;;;;;;;73.65;45.08;;;;;;;;;;5082092;28;20024;-70
2022/05/24 00:04:38;;;;;;;70.13;43.50;;;;;;;;;;5084884;28;20028;-70
2022/05/24 00:07:04;;;;;;;63.03;40.65;;;;;;;;;;5065252;28;20426;-71
2022/05/24 00:09:30;;;;;;;60.83;38.47;;;;;;;;;;5080151;28;20077;-71
2022/05/24 00:11:56;;;;;;;56.42;34.45;;;;;;;;;;5080026;28;20476;-70
2022/05/24 00:17:08;;;;;;;53.25;30.52;;;;;;;;;;5083750;28;20071;-70
2022/05/24 00:19:34;;;;;;;53.00;30.00;;;;;;;;;;5081619;28;20055;-70
2022/05/24 00:22:00;;;;;;;47.53;29.27;;;;;;;;;;5081127;28;20085;-69
2022/05/24 00:24:26;;;;;;;46.20;29.20;;;;;;;;;;5075741;28;20501;-69
2022/05/24 00:26:53;;;;;;;39.42;25.65;;;;;;;;;;5082474;28;20032;-69
2022/05/24 00:29:19;;;;;;;42.53;24.80;;;;;;;;;;5082124;28;20574;-69
2022/05/24 00:31:45;;;;;;;39.40;24.75;;;;;;;;;;5078803;28;20016;-71
2022/05/24 00:34:12;;;;;;;38.63;24.35;;;;;;;;;;5081811;28;20040;-70
2022/05/24 00:36:38;;;;;;;41.42;24.08;;;;;;;;;;5080051;28;20547;-71
2022/05/24 00:39:05;;;;;;;36.45;22.52;;;;;;;;;;5078872;28;20454;-70
2022/05/24 00:41:31;;;;;;;34.50;20.85;;;;;;;;;;5081750;28;20024;-71
2022/05/24 00:44:03;;;;;;;30.67;19.58;;;;;;;;;;5080162;28;20571;-71
2022/05/24 00:46:33;;;;;;;35.15;18.95;;;;;;;;;;5080033;28;20020;-70
2022/05/24 00:49:06;;;;;;;31.70;17.40;;;;;;;;;;5084601;28;20024;-71
2022/05/24 00:51:35;;;;;;;30.50;17.00;;;;;;;;;;5087786;28;20111;-71
2022/05/24 00:54:01;;;;;;;25.85;15.18;;;;;;;;;;5087851;28;20028;-73
2022/05/24 00:56:33;;;;;;;28.35;16.75;;;;;;;;;;5088250;28;20043;-70
2022/05/24 00:59:00;;;;;;;34.25;15.65;;;;;;;;;;5087418;28;20028;-70
2022/05/24 01:01:30;;;;;;;23.00;13.68;;;;;;;;;;5088633;28;20036;-73
2022/05/24 01:03:56;;;;;;;26.95;14.23;;;;;;;;;;5090030;28;20059;-70
2022/05/24 01:06:24;;;;;;;29.15;14.60;;;;;;;;;;5091920;28;20030;-72
2022/05/24 01:08:50;;;;;;;29.70;15.75;;;;;;;;;;5090613;28;20408;-71
2022/05/24 01:11:17;;;;;;;37.35;19.23;;;;;;;;;;5087811;28;20028;-72
2022/05/24 01:13:44;;;;;;;42.22;21.63;;;;;;;;;;5087134;28;21061;-70
2022/05/24 01:16:10;;;;;;;40.38;23.90;;;;;;;;;;5087679;28;20115;-72
2022/05/24 01:18:36;;;;;;;48.03;27.25;;;;;;;;;;5085824;28;20177;-72
2022/05/24 01:21:05;;;;;;;47.33;28.52;;;;;;;;;;5088124;28;20477;-71
2022/05/24 01:23:39;;;;;;;56.08;28.38;;;;;;;;;;5090546;28;20020;-71
2022/05/24 01:26:08;;;;;;;50.30;29.27;;;;;;;;;;5090245;28;20108;-70
2022/05/24 01:28:42;;;;;;;53.72;30.02;;;;;;;;;;5091118;28;20028;-72
2022/05/24 01:31:08;;;;;;;54.30;29.38;;;;;;;;;;5081832;28;20020;-70
2022/05/24 01:36:20;;;;;;;47.38;28.25;;;;;;;;;;5091472;28;20515;-71
2022/05/24 01:38:51;;;;;;;49.33;27.65;;;;;;;;;;5086877;28;20032;-70
2022/05/24 01:41:17;;;;;;;;;;;;;;;;;;5086528;28;20032;-71
2022/05/24 01:43:43;;;;;;;41.78;25.73;;;;;;;;;;5090637;28;19908;-70
2022/05/24 01:46:10;;;;;;;41.05;22.58;;;;;;;;;;5089374;28;20039;-70
2022/05/24 01:48:41;;;;;;;46.92;22.08;;;;;;;;;;5088843;28;20028;-71
2022/05/24 01:51:08;;;;;;;33.92;18.15;;;;;;;;;;5089072;28;20020;-71
2022/05/24 01:53:37;;;;;;;37.08;18.35;;;;;;;;;;5089076;28;20036;-72
2022/05/24 01:56:05;;;;;;;37.15;17.80;;;;;;;;;;5090202;28;20032;-71
2022/05/24 01:58:32;;;;;;;28.35;15.60;;;;;;;;;;5087991;28;20038;-69
2022/05/24 02:01:09;;;;;;;33.42;14.90;;;;;;;;;;5088846;28;20104;-70
2022/05/24 02:03:35;;;;;;;26.40;14.38;;;;;;;;;;5087358;28;20032;-70
2022/05/24 02:06:17;;;;;;;28.25;12.15;;;;;;;;;;5089952;28;20507;-70
2022/05/24 02:08:43;;;;;;;30.55;13.57;;;;;;;;;;5089507;28;20070;-71
2022/05/24 02:11:09;;;;;;;26.35;13.90;;;;;;;;;;5086563;28;20149;-71
2022/05/24 02:13:36;;;;;;;25.73;11.65;;;;;;;;;;5089267;28;20032;-72
2022/05/24 02:16:04;;;;;;;21.00;11.27;;;;;;;;;;5089792;28;20105;-71
2022/05/24 02:18:31;;;;;;;22.38;11.57;;;;;;;;;;5089145;28;20513;-71
2022/05/24 02:20:57;;;;;;;29.13;12.95;;;;;;;;;;5087331;28;20047;-72
2022/05/24 02:23:23;;;;;;;28.08;12.32;;;;;;;;;;5089768;28;20036;-73
2022/05/24 02:25:56;;;;;;;24.27;12.68;;;;;;;;;;5087861;28;20493;-70
2022/05/24 02:28:24;;;;;;;28.55;13.85;;;;;;;;;;5087091;28;20434;-71
2022/05/24 02:30:54;;;;;;;22.60;13.55;;;;;;;;;;5087148;28;20032;-71
2022/05/24 02:33:22;;;;;;;31.67;14.60;;;;;;;;;;5086992;28;20035;-69
2022/05/24 02:35:48;;;;;;;24.55;13.20;;;;;;;;;;5088607;28;20203;-71
2022/05/24 02:38:14;;;;;;;30.42;14.32;;;;;;;;;;5083314;28;20039;-70
2022/05/24 02:43:25;;;;;;;29.83;14.52;;;;;;;;;;5085759;28;20218;-71
2022/05/24 02:45:51;;;;;;;28.58;14.75;;;;;;;;;;5081318;28;20113;-70
2022/05/24 02:48:17;;;;;;;27.05;15.07;;;;;;;;;;5085341;28;20099;-72
2022/05/24 02:50:43;;;;;;;29.83;15.25;;;;;;;;;;5087154;28;20119;-72
2022/05/24 02:53:10;;;;;;;32.67;15.23;;;;;;;;;;5088630;28;20119;-71
2022/05/24 02:55:36;;;;;;;31.02;16.50;;;;;;;;;;5089240;28;20145;-70
2022/05/24 02:58:02;;;;;;;29.63;16.27;;;;;;;;;;5089522;28;20054;-71
2022/05/24 03:00:29;;;;;;;36.72;17.73;;;;;;;;;;5086605;28;20912;-70
2022/05/24 03:02:55;;;;;;;31.00;17.02;;;;;;;;;;5084399;28;20121;-69
2022/05/24 03:05:22;;;;;;;36.42;17.08;;;;;;;;;;5091603;28;20030;-71
2022/05/24 03:10:34;;;;;;;28.90;18.23;;;;;;;;;;5085946;28;20131;-71
2022/05/24 03:15:46;;;;;;;30.27;17.75;;;;;;;;;;5090462;28;20051;-70
2022/05/24 03:18:13;;;;;;;35.85;18.17;;;;;;;;;;5090933;28;20034;-70
2022/05/24 03:20:40;;;;;;;35.13;18.30;;;;;;;;;;5085496;28;20477;-71
2022/05/24 03:23:06;;;;;;;34.40;19.38;;;;;;;;;;5088086;28;20028;-70
2022/05/24 03:25:33;;;;;;;33.90;19.08;;;;;;;;;;5088332;28;20481;-71
2022/05/24 03:27:59;;;;;;;31.10;17.48;;;;;;;;;;5088021;28;20032;-72
2022/05/24 03:30:26;;;;;;;32.80;18.92;;;;;;;;;;5070434;28;20032;-71
2022/05/24 03:32:52;;;;;;;35.78;18.25;;;;;;;;;;5090885;28;20044;-72
2022/05/24 03:35:18;;;;;;;37.83;18.48;;;;;;;;;;5083208;28;20483;-71
2022/05/24 03:37:44;;;;;;;42.35;18.48;;;;;;;;;;5085538;28;20032;-70
2022/05/24 03:40:11;;;;;;;38.30;17.75;;;;;;;;;;5092899;28;20044;-71
2022/05/24 03:42:37;;;;;;;35.45;18.20;;;;;;;;;;5091867;28;20038;-70
2022/05/24 03:45:04;;;;;;;47.10;19.75;;;;;;;;;;5087909;28;20393;-71
2022/05/24 03:47:30;;;;;;;32.20;18.83;;;;;;;;;;5086794;28;20040;-71
2022/05/24 03:49:56;;;;;;;35.10;19.52;;;;;;;;;;5083257;28;20309;-71
2022/05/24 03:52:22;;;;;;;33.47;18.60;;;;;;;;;;5093389;28;20042;-72
2022/05/24 03:54:48;;;;;;;38.35;18.60;;;;;;;;;;5078688;28;20449;-70
2022/05/24 03:59:59;;;;;;;32.72;19.73;;;;;;;;;;5085938;28;20410;-71
2022/05/24 04:02:25;;;;;;;31.05;19.23;;;;;;;;;;5092304;28;20040;-72
2022/05/24 04:04:51;;;;;;;33.97;18.60;;;;;;;;;;5085869;28;20023;-71
2022/05/24 04:07:17;;;;;;;39.00;20.50;;;;;;;;;;5086009;28;20032;-71
2022/05/24 04:09:43;;;;;;;37.83;20.00;;;;;;;;;;5099464;28;20528;-71
2022/05/24 04:12:09;;;;;;;40.63;20.50;;;;;;;;;;5085895;28;20052;-71
2022/05/24 04:14:35;;;;;;;35.03;19.02;;;;;;;;;;5088940;28;20055;-71
2022/05/24 04:17:01;;;;;;;31.33;18.58;;;;;;;;;;5085968;28;20494;-71
2022/05/24 04:19:27;;;;;;;38.85;19.77;;;;;;;;;;5087031;28;20069;-71
2022/05/24 04:21:53;;;;;;;37.13;20.38;;;;;;;;;;5087181;28;20028;-72
2022/05/24 04:24:19;;;;;;;32.20;19.35;;;;;;;;;;5086191;28;20020;-71
2022/05/24 04:26:46;;;;;;;40.05;20.58;;;;;;;;;;5085960;28;20094;-71
2022/05/24 04:29:15;;;;;;;34.28;19.30;;;;;;;;;;5088740;28;20047;-72
2022/05/24 04:31:41;;;;;;;37.55;19.92;;;;;;;;;;5083267;28;20073;-73
2022/05/24 04:34:07;;;;;;;35.58;19.75;;;;;;;;;;5087977;28;20453;-71
2022/05/24 04:36:33;;;;;;;32.75;19.63;;;;;;;;;;5088726;28;20028;-74
2022/05/24 04:39:00;;;;;;;36.42;20.60;;;;;;;;;;5086361;28;20123;-70
2022/05/24 04:44:11;;;;;;;42.40;21.98;;;;;;;;;;5092305;28;20508;-70
2022/05/24 04:49:23;;;;;;;36.53;21.92;;;;;;;;;;5102436;28;20630;-71
2022/05/24 04:51:52;;;;;;;37.13;22.35;;;;;;;;;;5091353;28;20032;-70
2022/05/24 04:54:18;;;;;;;43.63;22.42;;;;;;;;;;5100016;28;20039;-70
2022/05/24 04:56:46;;;;;;;39.28;22.15;;;;;;;;;;5091789;28;20032;-71
2022/05/24 04:59:12;;;;;;;42.08;21.10;;;;;;;;;;5102008;28;20024;-70
2022/05/24 05:01:38;;;;;;;41.20;22.00;;;;;;;;;;5092107;28;20059;-71
2022/05/24 05:04:04;;;;;;;37.08;22.25;;;;;;;;;;5088275;28;20105;-71
2022/05/24 05:06:30;;;;;;;38.70;20.15;;;;;;;;;;5090717;28;20487;-70
2022/05/24 05:08:56;;;;;;;36.38;21.13;;;;;;;;;;5090024;28;20151;-72
2022/05/24 05:11:22;;;;;;;37.85;19.48;;;;;;;;;;5082578;28;20100;-70
2022/05/24 05:13:48;;;;;;;31.92;18.63;;;;;;;;;;5070410;28;20071;-69
2022/05/24 05:16:14;;;;;;;35.20;18.42;;;;;;;;;;5080287;28;20072;-71
2022/05/24 05:18:40;;;;;;;31.55;16.73;;;;;;;;;;5085723;28;20433;-70
2022/05/24 05:21:06;;;;;;;37.90;17.02;;;;;;;;;;5083109;28;20046;-72
2022/05/24 05:23:32;;;;;;;30.38;15.30;;;;;;;;;;5089539;28;20449;-71
2022/05/24 05:25:58;;;;;;;29.08;14.95;;;;;;;;;;5087147;28;20059;-71
2022/05/24 05:28:24;;;;;;;34.30;14.70;;;;;;;;;;5095998;28;20035;-71
2022/05/24 05:33:35;;;;;;;32.70;13.65;;;;;;;;;;5086258;28;20051;-70
2022/05/24 05:36:02;;;;;;;32.55;13.02;;;;;;;;;;5080186;28;20063;-70
2022/05/24 05:38:28;;;;;;;23.15;11.48;;;;;;;;;;5083108;28;20028;-69
2022/05/24 05:40:54;;;;;;;23.33;12.50;;;;;;;;;;5084403;28;20107;-71
2022/05/24 05:43:20;;;;;;;22.80;10.95;;;;;;;;;;5088417;28;20069;-71
2022/05/24 05:45:53;;;;;;;20.55;10.80;;;;;;;;;;5090257;28;20024;-70
2022/05/24 05:48:19;;;;;;;25.52;10.38;;;;;;;;;;5083656;28;20035;-70
2022/05/24 05:50:47;;;;;;;18.15;8.27;;;;;;;;;;5086988;28;20032;-70
2022/05/24 05:53:13;;;;;;;21.45;9.77;;;;;;;;;;5083102;28;20042;-72
2022/05/24 05:55:41;;;;;;;19.95;8.23;;;;;;;;;;5092165;28;20035;-70
2022/05/24 05:58:07;;;;;;;21.65;8.48;;;;;;;;;;5092483;28;20032;-72
2022/05/24 06:00:33;;;;;;;21.20;8.98;;;;;;;;;;5090130;28;20047;-72
2022/05/24 06:02:59;;;;;;;17.30;7.85;;;;;;;;;;5084637;28;20481;-71
2022/05/24 06:05:25;;;;;;;19.13;8.35;;;;;;;;;;5082411;28;20202;-72
2022/05/24 06:07:51;;;;;;;18.98;8.57;;;;;;;;;;5073610;28;20035;-71
2022/05/24 06:10:17;;;;;;;20.48;9.15;;;;;;;;;;5087956;28;20028;-72
2022/05/24 06:12:43;;;;;;;19.60;9.00;;;;;;;;;;5097120;28;20031;-70
2022/05/24 06:15:09;;;;;;;22.90;9.18;;;;;;;;;;5082766;28;20044;-71
2022/05/24 06:17:45;;;;;;;15.98;9.25;;;;;;;;;;5089515;28;20090;-73
2022/05/24 06:20:11;;;;;;;21.38;8.25;;;;;;;;;;5078948;28;20031;-71
2022/05/24 06:22:37;;;;;;;17.02;8.00;;;;;;;;;;5087482;28;20043;-70
2022/05/24 06:25:04;;;;;;;23.05;8.35;;;;;;;;;;5091045;28;20020;-72
2022/05/24 06:27:30;;;;;;;22.67;10.73;;;;;;;;;;5088843;28;20031;-71
2022/05/24 06:29:56;;;;;;;16.58;8.50;;;;;;;;;;5087479;28;20024;-70
2022/05/24 06:32:22;;;;;;;18.33;9.20;;;;;;;;;;5090503;28;20048;-71
2022/05/24 06:34:49;;;;;;;16.40;8.50;;;;;;;;;;5089328;28;20051;-72
2022/05/24 06:37:21;;;;;;;20.33;10.30;;;;;;;;;;5090113;28;20031;-71
2022/05/24 06:39:47;;;;;;;17.88;9.07;;;;;;;;;;5090697;28;20068;-71
2022/05/24 06:42:13;;;;;;;24.95;10.02;;;;;;;;;;5091286;28;20444;-71
2022/05/24 06:44:39;;;;;;;17.58;9.25;;;;;;;;;;5078346;28;20020;-72
2022/05/24 06:47:06;;;;;;;21.35;10.77;;;;;;;;;;5090354;28;20024;-71
2022/05/24 06:49:32;;;;;;;20.30;10.50;;;;;;;;;;5082815;28;20141;-72
2022/05/24 06:51:58;;;;;;;19.15;10.05;;;;;;;;;;5086108;28;20076;-66
2022/05/24 06:54:24;;;;;;;19.45;10.20;;;;;;;;;;5084753;28;20050;-68
2022/05/24 06:56:50;;;;;;;19.33;9.15;;;;;;;;;;5087532;28;20028;-72
2022/05/24 07:04:46;;;;;;;16.73;8.40;;;;;;;;;;5092600;28;20437;-69
2022/05/24 07:07:12;;;;;;;15.27;7.78;;;;;;;;;;5083235;28;20028;-68
2022/05/24 07:09:40;;;;;;;20.95;7.75;;;;;;;;;;5081252;28;20082;-69
2022/05/24 07:12:06;;;;;;;11.73;6.95;;;;;;;;;;5088163;28;20032;-68
2022/05/24 07:14:35;;;;;;;10.02;6.70;;;;;;;;;;5084829;28;20081;-70
2022/05/24 07:17:01;;;;;;;9.73;5.70;;;;;;;;;;5081658;28;20048;-69
2022/05/24 07:19:28;;;;;;;15.07;5.22;;;;;;;;;;5069588;28;20024;-70
2022/05/24 07:21:54;;;;;;;11.40;5.47;;;;;;;;;;5080688;28;20114;-69
2022/05/24 07:24:20;;;;;;;11.57;5.60;;;;;;;;;;5079204;28;20577;-71
2022/05/24 07:26:46;;;;;;;9.75;5.35;;;;;;;;;;5082105;28;20032;-69
2022/05/24 07:29:13;;;;;;;15.30;5.75;;;;;;;;;;5082697;28;20028;-69
2022/05/24 07:31:39;;;;;;;13.77;5.80;;;;;;;;;;5083048;28;20074;-69
2022/05/24 07:34:08;;;;;;;11.25;5.60;;;;;;;;;;5090317;28;20111;-69
2022/05/24 07:36:34;;;;;;;11.27;5.88;;;;;;;;;;5090413;28;20028;-68
2022/05/24 07:39:00;;;;;;;13.27;6.05;;;;;;;;;;5088256;28;20028;-70
2022/05/24 07:46:56;;;;;;;10.75;4.57;;;;;;;;;;5107017;28;20191;-69
2022/05/24 07:49:22;;;;;;;6.97;3.97;;;;;;;;;;5090322;28;20501;-68
2022/05/24 07:51:48;;;;;;;7.00;2.00;;;;;;;;;;5088642;28;20035;-68
2022/05/24 07:54:14;;;;;;;6.13;1.52;;;;;;;;;;5088029;28;20436;-68
2022/05/24 07:56:41;;;;;;;6.60;1.90;;;;;;;;;;5088858;28;20040;-69
2022/05/24 07:59:08;;;;;;;3.17;1.80;;;;;;;;;;5087767;28;20040;-68
2022/05/24 08:01:36;;;;;;;3.58;1.98;;;;;;;;;;5089911;28;20067;-68
2022/05/24 08:04:02;;;;;;;7.57;2.20;;;;;;;;;;5089663;28;20058;-69
2022/05/24 08:06:28;;;;;;;9.40;3.13;;;;;;;;;;5087998;28;20551;-69
2022/05/24 08:08:54;;;;;;;5.80;3.35;;;;;;;;;;5091937;28;20131;-69
2022/05/24 08:11:20;;;;;;;8.38;3.80;;;;;;;;;;5079574;28;20132;-69
2022/05/24 08:13:46;;;;;;;8.98;4.00;;;;;;;;;;5088795;28;20039;-69
2022/05/24 08:16:12;;;;;;;9.05;4.80;;;;;;;;;;5087436;28;20040;-69
2022/05/24 08:18:38;;;;;;;9.63;5.60;;;;;;;;;;5109392;28;20035;-71
2022/05/24 08:21:04;;;;;;;7.88;3.70;;;;;;;;;;5108468;28;20119;-68
2022/05/24 08:23:30;;;;;;;9.35;4.18;;;;;;;;;;5086530;28;20029;-68
2022/05/24 08:25:57;;;;;;;7.13;3.50;;;;;;;;;;5088485;28;20084;-69
2022/05/24 08:28:23;;;;;;;7.30;3.60;;;;;;;;;;5098049;28;20104;-69
2022/05/24 08:30:50;;;;;;;7.30;2.85;;;;;;;;;;5110026;28;20019;-69
2022/05/24 08:33:17;;;;;;;5.32;2.53;;;;;;;;;;5107450;28;20046;-69
2022/05/24 08:35:44;;;;;;;3.53;2.03;;;;;;;;;;5087306;28;20115;-68
2022/05/24 08:38:12;;;;;;;9.35;3.25;;;;;;;;;;5096948;28;20397;-69
2022/05/24 08:40:39;;;;;;;3.25;2.00;;;;;;;;;;5110266;28;20027;-69
2022/05/24 08:43:14;;;;;;;3.20;1.60;;;;;;;;;;5098276;28;20024;-69
2022/05/24 08:48:57;;;;;;;3.88;1.48;;;;;;;;;;5088258;28;20035;-69
2022/05/24 08:51:43;;;;;;;5.60;1.65;;;;;;;;;;5089719;28;20044;-67
2022/05/24 08:54:12;;;;;;;4.47;1.88;;;;;;;;;;5085761;28;20548;-68
2022/05/24 08:56:50;;;;;;;4.85;2.10;;;;;;;;;;5099065;28;20029;-68
2022/05/24 08:59:21;;;;;;;2.58;1.95;;;;;;;;;;5106176;28;20044;-68
2022/05/24 09:01:49;;;;;;;5.18;2.00;;;;;;;;;;5091934;28;20388;-67
2022/05/24 09:04:15;;;;;;;5.93;2.10;;;;;;;;;;5087491;28;20020;-68
2022/05/24 09:06:50;;;;;;;4.88;2.03;;;;;;;;;;5088615;28;20028;-69
2022/05/24 09:09:28;;;;;;;6.32;2.00;;;;;;;;;;5085735;28;20662;-69
2022/05/24 09:12:32;;;;;;;5.47;2.05;;;;;;;;;;5088332;28;20165;-68
2022/05/24 09:15:22;;;;;;;9.05;2.38;;;;;;;;;;5045735;28;20074;-70
2022/05/24 09:18:17;;;;;;;5.67;2.10;;;;;;;;;;5048083;28;20104;-69
2022/05/24 09:20:44;;;;;;;3.90;2.03;;;;;;;;;;5048647;28;20037;-68
2022/05/24 09:23:29;;;;;;;5.85;2.40;;;;;;;;;;5049707;28;20104;-68
2022/05/24 09:25:58;;;;;;;5.65;2.15;;;;;;;;;;5031573;28;20108;-69
2022/05/24 09:28:45;;;;;;;3.83;2.05;;;;;;;;;;5032394;28;20016;-69
2022/05/24 09:31:13;;;;;;;4.65;2.13;;;;;;;;;;5032647;28;20245;-69
2022/05/24 09:33:41;;;;;;;7.85;2.30;;;;;;;;;;5041585;28;20112;-68
2022/05/24 09:36:07;;;;;;;4.43;2.30;;;;;;;;;;5052022;28;20033;-69
2022/05/24 09:38:38;;;;;;;9.75;2.60;;;;;;;;;;5050928;28;20498;-69
2022/05/24 09:41:16;;;;;;;10.15;2.78;;;;;;;;;;5052673;28;20032;-69
2022/05/24 09:43:42;;;;;;;4.45;2.20;;;;;;;;;;5050916;28;20025;-69
2022/05/24 09:46:20;;;;;;;5.63;2.38;;;;;;;;;;5052107;28;20543;-68
2022/05/24 09:48:58;;;;;;;8.32;2.55;;;;;;;;;;5050901;28;20514;-68
2022/05/24 09:51:27;;;;;;;4.57;1.80;;;;;;;;;;5052196;28;20028;-71
2022/05/24 09:53:54;;;;;;;4.95;2.10;;;;;;;;;;5053390;28;20474;-69
2022/05/24 09:56:33;;;;;;;7.50;2.67;;;;;;;;;;5054449;28;20164;-69
2022/05/24 09:59:05;;;;;;;4.88;2.40;;;;;;;;;;5051423;28;20110;-68
2022/05/24 10:01:31;;;;;;;5.95;2.78;;;;;;;;;;5042639;28;20035;-67
2022/05/24 10:04:09;;;;;;;4.78;2.22;;;;;;;;;;5051311;28;20059;-68
2022/05/24 10:06:36;;;;;;;4.97;2.13;;;;;;;;;;5050927;28;20029;-68
2022/05/24 10:09:20;;;;;;;4.90;2.08;;;;;;;;;;5051019;28;20534;-68
2022/05/24 10:11:49;;;;;;;6.43;2.22;;;;;;;;;;5037754;28;20094;-69
2022/05/24 10:14:27;;;;;;;5.30;2.20;;;;;;;;;;5040814;28;20029;-68
2022/05/24 10:17:02;;;;;;;5.07;2.00;;;;;;;;;;5075815;28;20048;-68
2022/05/24 10:19:37;;;;;;;9.63;2.13;;;;;;;;;;5083709;28;20043;-71
2022/05/24 10:22:21;;;;;;;6.80;2.53;;;;;;;;;;5091042;28;20032;-71
2022/05/24 10:24:47;;;;;;;6.55;2.88;;;;;;;;;;5095814;28;20024;-69
2022/05/24 10:27:22;;;;;;;7.57;3.13;;;;;;;;;;5090228;28;20311;-69
2022/05/24 10:29:54;;;;;;;9.07;2.50;;;;;;;;;;5090807;28;20489;-70
2022/05/24 10:38:28;;;;;;;6.63;2.95;;;;;;;;;;5071689;28;20059;-69
2022/05/24 10:41:03;;;;;;;4.95;2.78;;;;;;;;;;5070871;28;20058;-69
2022/05/24 10:43:43;;;;;;;7.03;2.75;;;;;;;;;;5077291;28;20024;-68
2022/05/24 10:46:17;;;;;;;7.80;3.20;;;;;;;;;;5086259;28;20111;-70
2022/05/24 10:48:49;;;;;;;11.35;3.53;;;;;;;;;;5090971;28;20055;-69
2022/05/24 10:51:28;;;;;;;8.90;4.05;;;;;;;;;;5090377;28;20520;-68
2022/05/24 10:53:57;;;;;;;8.82;3.97;;;;;;;;;;5072798;28;20032;-69
2022/05/24 10:56:40;;;;;;;11.10;4.05;;;;;;;;;;5091003;28;20107;-69
2022/05/24 10:59:12;;;;;;;8.07;4.03;;;;;;;;;;5088977;28;20028;-68
2022/05/24 11:01:41;;;;;;;8.70;3.35;;;;;;;;;;5086286;28;20485;-69
2022/05/24 11:04:10;;;;;;;6.38;3.45;;;;;;;;;;5090634;28;20085;-70
2022/05/24 11:06:39;;;;;;;8.35;3.58;;;;;;;;;;5090904;28;20093;-68
2022/05/24 11:09:15;;;;;;;7.72;2.80;;;;;;;;;;5092409;28;20408;-68
2022/05/24 11:11:56;;;;;;;11.10;2.60;;;;;;;;;;5087871;28;20101;-68
2022/05/24 11:14:28;;;;;;;6.38;2.30;;;;;;;;;;5089931;28;20064;-70
2022/05/24 11:16:55;;;;;;;4.90;2.05;;;;;;;;;;5083158;28;20048;-70
2022/05/24 11:19:23;;;;;;;8.20;2.60;;;;;;;;;;5090417;28;20048;-69
2022/05/24 11:21:52;;;;;;;7.60;1.90;;;;;;;;;;5090716;28;20040;-69
2022/05/24 11:24:23;;;;;;;2.05;1.30;;;;;;;;;;5090897;28;20027;-69
2022/05/24 11:26:53;;;;;;;5.40;1.60;;;;;;;;;;5077759;28;20028;-69
2022/05/24 11:29:44;;;;;;;5.63;1.80;;;;;;;;;;5069965;28;20091;-70
2022/05/24 11:32:11;;;;;;;7.05;1.85;;;;;;;;;;5081879;28;20359;-70
2022/05/24 11:34:51;;;;;;;5.97;2.00;;;;;;;;;;5082730;28;20106;-71
2022/05/24 11:37:28;;;;;;;6.60;1.80;;;;;;;;;;5085490;28;20355;-72
2022/05/24 11:39:54;;;;;;;6.20;2.08;;;;;;;;;;5082343;28;20039;-69
2022/05/24 11:42:28;;;;;;;5.18;2.25;;;;;;;;;;5085373;28;20032;-70
2022/05/24 11:44:57;;;;;;;4.25;1.80;;;;;;;;;;5088932;28;20032;-70
2022/05/24 11:47:35;;;;;;;5.80;2.08;;;;;;;;;;5086667;28;20020;-70
2022/05/24 11:50:06;;;;;;;5.20;2.00;;;;;;;;;;5091656;28;20110;-69
2022/05/24 11:52:32;;;;;;;;;;;;;;;;;;5096704;28;20418;-69
2022/05/24 11:54:58;;;;;;;5.40;2.28;;;;;;;;;;5085543;28;19910;-68
2022/05/24 11:57:26;;;;;;;4.35;1.80;;;;;;;;;;5102971;28;20085;-68
2022/05/24 11:59:53;;;;;;;7.78;2.30;;;;;;;;;;5109715;28;20032;-69
2022/05/24 12:07:54;;;;;;;5.75;1.88;;;;;;;;;;5106963;28;20023;-70
2022/05/24 12:08:26;;;;;;;3.97;1.58;;;;;;;;;;5083419;28;20055;-69
2022/05/24 12:10:55;;;;;;;4.95;1.60;;;;;;;;;;5082170;28;20496;-69
2022/05/24 12:13:35;;;;;;;5.15;1.90;;;;;;;;;;5087134;28;20028;-69
2022/05/24 12:16:03;;;;;;;8.77;2.40;;;;;;;;;;5080429;28;20135;-68
2022/05/24 12:18:40;;;;;;;5.30;1.55;;;;;;;;;;5082897;28;20028;-68
2022/05/24 12:21:06;;;;;;;8.23;1.95;;;;;;;;;;5082428;28;20036;-70
2022/05/24 12:23:34;;;;;;;8.35;2.47;;;;;;;;;;5086497;28;20481;-69
2022/05/24 12:26:12;;;;;;;7.35;2.40;;;;;;;;;;5085194;28;20103;-69
2022/05/24 12:28:38;;;;;;;6.63;1.92;;;;;;;;;;5085104;28;20020;-69
2022/05/24 12:31:17;;;;;;;6.05;2.17;;;;;;;;;;5085080;28;20039;-69
2022/05/24 12:34:03;;;;;;;3.50;1.85;;;;;;;;;;5084042;28;20029;-68
2022/05/24 12:36:29;;;;;;;4.43;1.60;;;;;;;;;;5081852;28;20443;-69
2022/05/24 12:39:16;;;;;;;8.23;2.15;;;;;;;;;;5082604;28;20472;-68
2022/05/24 12:41:42;;;;;;;5.15;1.50;;;;;;;;;;5083356;28;20457;-69
2022/05/24 12:44:12;;;;;;;7.20;1.85;;;;;;;;;;5088172;28;20381;-70
2022/05/24 12:46:38;;;;;;;6.63;2.40;;;;;;;;;;5087198;28;20047;-69
2022/05/24 12:49:09;;;;;;;5.82;1.70;;;;;;;;;;5081420;28;20025;-70
2022/05/24 12:51:35;;;;;;;;;;;;;;;;;;5084643;28;20036;-70
2022/05/24 12:54:16;;;;;;;3.15;1.80;;;;;;;;;;5082484;28;19908;-67
2022/05/24 12:56:52;;;;;;;7.72;1.45;;;;;;;;;;5084940;28;20028;-70
2022/05/24 12:59:18;;;;;;;7.30;1.58;;;;;;;;;;5087485;28;20028;-70
2022/05/24 13:01:44;;;;;;;4.93;1.63;;;;;;;;;;5088104;28;20505;-68
2022/05/24 13:04:13;;;;;;;6.15;2.13;;;;;;;;;;5091947;28;20043;-69
2022/05/24 13:06:41;;;;;;;4.68;1.60;;;;;;;;;;5091334;28;20021;-71
2022/05/24 13:09:26;;;;;;;8.23;1.80;;;;;;;;;;5086953;28;20021;-70
2022/05/24 13:12:01;;;;;;;13.00;2.20;;;;;;;;;;5089839;28;20027;-68
2022/05/24 13:14:33;;;;;;;5.68;1.80;;;;;;;;;;5082762;28;20035;-69
2022/05/24 13:17:00;;;;;;;6.68;1.75;;;;;;;;;;5082945;28;20044;-70
2022/05/24 13:19:26;;;;;;;3.53;1.40;;;;;;;;;;5085825;28;20112;-68
2022/05/24 13:21:53;;;;;;;3.90;1.50;;;;;;;;;;5079998;28;20505;-68
2022/05/24 13:24:19;;;;;;;7.85;1.58;;;;;;;;;;5085273;28;20016;-70
2022/05/24 13:27:05;;;;;;;3.28;1.40;;;;;;;;;;5082658;28;20029;-69
2022/05/24 13:33:33;;;;;;;3.15;1.15;;;;;;;;;;5083701;28;20047;-70
2022/05/24 13:35:03;;;;;;;5.20;1.40;;;;;;;;;;5086208;28;20079;-69
2022/05/24 13:37:49;;;;;;;3.88;1.23;;;;;;;;;;5086793;28;20029;-68
2022/05/24 13:40:16;;;;;;;5.13;1.65;;;;;;;;;;5086865;28;20047;-69
2022/05/24 13:42:58;;;;;;;5.55;1.40;;;;;;;;;;5081510;28;20127;-69
2022/05/24 13:45:26;;;;;;;3.75;1.30;;;;;;;;;;5083558;28;20028;-68
2022/05/24 13:48:00;;;;;;;2.45;1.10;;;;;;;;;;5083320;28;20085;-68
2022/05/24 13:50:32;;;;;;;3.80;0.93;;;;;;;;;;5084983;28;20240;-69
2022/05/24 13:52:58;;;;;;;4.03;1.30;;;;;;;;;;5086155;28;20067;-68
2022/05/24 13:55:24;;;;;;;3.58;1.13;;;;;;;;;;5090637;28;20056;-69
2022/05/24 13:58:08;;;;;;;7.05;1.10;;;;;;;;;;5084324;28;20032;-69
2022/05/24 14:00:36;;;;;;;4.32;1.20;;;;;;;;;;5083468;28;20116;-69
2022/05/24 14:03:26;;;;;;;3.22;0.70;;;;;;;;;;5083302;28;20043;-69
2022/05/24 14:06:04;;;;;;;2.00;0.75;;;;;;;;;;5076365;28;20067;-70
2022/05/24 14:08:31;;;;;;;1.25;0.68;;;;;;;;;;5084634;28;20028;-69
2022/05/24 14:10:57;;;;;;;4.45;0.60;;;;;;;;;;5087882;28;20032;-70
2022/05/24 14:13:23;;;;;;;6.70;1.85;;;;;;;;;;5085743;28;20050;-69
2022/05/24 14:15:50;;;;;;;4.13;1.15;;;;;;;;;;5084636;28;20078;-70
2022/05/24 14:18:16;;;;;;;9.07;1.10;;;;;;;;;;5079642;28;20059;-69
2022/05/24 14:20:42;;;;;;;8.02;2.28;;;;;;;;;;5083997;28;20109;-69
2022/05/24 14:23:09;;;;;;;9.50;3.10;;;;;;;;;;5082164;28;20047;-70
2022/05/24 14:25:35;;;;;;;2.33;0.80;;;;;;;;;;5078988;28;20036;-67
2022/05/24 14:28:02;;;;;;;4.25;0.85;;;;;;;;;;5085623;28;20020;-70
2022/05/24 14:30:29;;;;;;;2.78;0.70;;;;;;;;;;5086766;28;20446;-68
2022/05/24 14:32:59;;;;;;;1.52;0.50;;;;;;;;;;5082139;28;20107;-69
2022/05/24 14:35:26;;;;;;;2.20;0.90;;;;;;;;;;5079715;28;20032;-70
2022/05/24 14:37:52;;;;;;;2.67;0.80;;;;;;;;;;5085639;28;20032;-70
2022/05/24 14:40:18;;;;;;;4.00;1.00;;;;;;;;;;5081910;28;20032;-70
2022/05/24 14:42:47;;;;;;;3.42;0.88;;;;;;;;;;5081470;28;20472;-69
2022/05/24 14:45:13;;;;;;;3.72;0.90;;;;;;;;;;5081071;28;20525;-69
2022/05/24 14:47:39;;;;;;;3.05;0.98;;;;;;;;;;5080643;28;20022;-70
2022/05/24 14:50:05;;;;;;;3.83;1.35;;;;;;;;;;5079854;28;20081;-69
2022/05/24 14:52:34;;;;;;;3.05;1.00;;;;;;;;;;5083639;28;20039;-70
2022/05/24 14:55:00;;;;;;;5.18;1.00;;;;;;;;;;5087181;28;20012;-68
2022/05/24 14:57:26;;;;;;;3.75;0.80;;;;;;;;;;5086116;28;20032;-68
2022/05/24 14:59:53;;;;;;;6.95;1.13;;;;;;;;;;5084154;28;20031;-69
2022/05/24 15:02:19;;;;;;;6.55;1.02;;;;;;;;;;5087600;28;20028;-69
2022/05/24 15:04:46;;;;;;;3.55;1.25;;;;;;;;;;5085850;28;20035;-68
2022/05/24 15:15:30;;;;;;;3.88;1.00;;;;;;;;;;5089572;28;20075;-70
2022/05/24 15:17:56;;;;;;;2.30;1.08;;;;;;;;;;5087534;28;20458;-69
2022/05/24 15:20:23;;;;;;;4.13;0.70;;;;;;;;;;5088584;28;20024;-69
2022/05/24 15:22:52;;;;;;;3.45;0.88;;;;;;;;;;5085028;28;20031;-70
2022/05/24 15:25:20;;;;;;;2.95;0.93;;;;;;;;;;5082902;28;20073;-68
2022/05/24 15:27:47;;;;;;;5.70;1.50;;;;;;;;;;5075052;28;20406;-68
2022/05/24 15:30:14;;;;;;;2.13;0.90;;;;;;;;;;5084399;28;20035;-70
2022/05/24 15:32:40;;;;;;;5.47;0.93;;;;;;;;;;5082215;28;20028;-70
2022/05/24 15:35:06;;;;;;;4.65;0.90;;;;;;;;;;5087472;28;20027;-71
2022/05/24 15:37:32;;;;;;;5.22;1.00;;;;;;;;;;5087744;28;20062;-68
2022/05/24 15:39:59;;;;;;;3.92;1.10;;;;;;;;;;5088904;28;20107;-68
2022/05/24 15:42:25;;;;;;;4.28;1.17;;;;;;;;;;5090497;28;20065;-69
2022/05/24 15:44:51;;;;;;;2.40;0.93;;;;;;;;;;5088931;28;20039;-70